Flight Track Log - Related Links

Times and Time Zones

All times are in EDT time to prevent confusion due to time zone crossing. See the N700QA flight status page for this flight to view local times or setup timezone preferences in your user account.

Time Position Orientation Groundspeed Altitude Reporting Facility
EDT Latitude Longitude Course Direction KTS MPH feet Rate Location/Type
Wed 10:00:32 PM 39.6000 -104.8167 90° East 198 228 7,500  Level Denver TRACON
Wed 10:01:26 PM 39.6000 -104.7500 90° East 209 241 9,000 1,468 Climbing Denver TRACON
Wed 10:02:06 PM 39.5778 -104.6967 118° Southeast 224 258 9,800 1,294 Climbing Denver Center
Wed 10:03:08 PM 39.5164 -104.6606 156° South 255 293 11,200 1,610 Climbing Denver Center
Wed 10:04:09 PM 39.4300 -104.6553 177° South 285 328 13,100 1,733 Climbing Denver Center
Wed 10:05:23 PM 39.3322 -104.6822 192° South 299 344 15,100 1,676 Climbing Denver Center
Wed 10:06:25 PM 39.2808 -104.7658 232° Southwest 298 343 16,900 1,415 Climbing Denver Center
Wed 10:07:26 PM 39.2383 -104.8614 240° Southwest 308 354 18,000 1,171 Climbing Denver Center
Wed 10:08:28 PM 39.1822 -104.9508 231° Southwest 331 381 19,300 1,220 Climbing Denver Center
Wed 10:09:29 PM 39.1003 -104.9886 200° South 315 362 20,500 1,366 Climbing Denver Center
Wed 10:10:31 PM 39.0164 -105.0289 200° South 318 366 22,100 1,024 Climbing Denver Center
Wed 10:11:32 PM 38.9483 -105.0614 200° South 322 371 22,600 1,082 Climbing Denver Center
Wed 10:12:33 PM 38.8381 -105.1128 200° South 327 376 24,300 1,122 Climbing Denver Center
Wed 10:13:35 PM 38.7511 -105.1308 189° South 327 376 24,900 756 Climbing Denver Center
Wed 10:14:48 PM 38.6586 -105.1889 206° Southwest 331 381 26,000 889 Climbing Denver Center
Wed 10:15:50 PM 38.5747 -105.2925 224° Southwest 336 387 26,900 829 Climbing Denver Center
Wed 10:16:51 PM 38.5083 -105.3744 224° Southwest 334 384 27,700 732 Climbing Denver Center
Wed 10:17:53 PM 38.4392 -105.4561 223° Southwest 338 389 28,400 634 Climbing Denver Center
Wed 10:18:54 PM 38.3700 -105.5403 224° Southwest 343 395 29,000 541 Climbing Denver Center
Wed 10:19:55 PM 38.2989 -105.6283 224° Southwest 345 397 29,500 537 Climbing Denver Center
Wed 10:20:57 PM 38.2206 -105.7228 223° Southwest 348 400 30,100 585 Climbing Denver Center
Wed 10:21:58 PM 38.1522 -105.8050 223° Southwest 352 405 30,700 541 Climbing Denver Center
Wed 10:22:59 PM 38.0739 -105.8989 223° Southwest 348 400 31,200 585 Climbing Denver Center
Wed 10:24:01 PM 38.0053 -105.9811 223° Southwest 352 405 31,900 683 Climbing Denver Center
Wed 10:25:02 PM 37.9375 -106.0617 223° Southwest 350 403 32,600 634 Climbing Denver Center
Wed 10:26:04 PM 37.8603 -106.1542 223° Southwest 343 395 33,200 537 Climbing Denver Center
Wed 10:27:05 PM 37.7922 -106.2339 223° Southwest 346 398 33,700 393 Climbing Denver Center
Wed 10:28:06 PM 37.7136 -106.3269 223° Southwest 348 400 34,000 146 Climbing Denver Center
Wed 10:29:08 PM 37.6461 -106.4075 223° Southwest 355 409 34,000 49 Level Denver Center
Wed 10:30:09 PM 37.5744 -106.4917 223° Southwest 367 422 34,100 -49 Climbing Denver Center
Wed 10:31:10 PM 37.4881 -106.5922 223° Southwest 377 434 33,900 -49 Descending Denver Center
Wed 10:32:11 PM 37.4142 -106.6797 223° Southwest 382 440 34,000 49 Climbing Denver Center
Wed 10:33:13 PM 37.3278 -106.7789 222° Southwest 376 433 34,000  Level Denver Center
Wed 10:34:14 PM 37.2553 -106.8678 224° Southwest 379 436 34,000  Level Denver Center
Wed 10:35:15 PM 37.1806 -106.9517 222° Southwest 378 435 34,000  Level Denver Center
Wed 10:36:17 PM 37.0950 -107.0525 223° Southwest 377 434 34,000  Level Denver Center
Wed 10:37:18 PM 37.0203 -107.1381 222° Southwest 380 437 34,000  Level Denver Center
Wed 10:38:19 PM 36.9467 -107.2253 223° Southwest 379 436 34,000  Level Denver Center
Wed 10:39:20 PM 36.8597 -107.3233 222° Southwest 378 435 34,000  Level Denver Center
Wed 10:40:21 PM 36.7844 -107.4083 222° Southwest 379 436 34,000  Level Denver Center
Wed 10:41:23 PM 36.7222 -107.4803 223° Southwest 380 437 34,000  Level Denver Center
Wed 10:42:24 PM 36.6242 -107.5936 223° Southwest 376 433 34,000 49 Level Denver Center
Wed 10:43:25 PM 36.5489 -107.6772 222° Southwest 377 434 34,100 49 Climbing Denver Center
Wed 10:44:26 PM 36.4617 -107.7753 222° Southwest 378 435 34,100 -49 Level Denver Center
Wed 10:45:27 PM 36.3881 -107.8594 223° Southwest 377 434 34,000 -49 Descending Denver Center
Wed 10:46:29 PM 36.3136 -107.9417 222° Southwest 374 430 34,000 49 Level Denver Center
Wed 10:47:30 PM 36.2275 -108.0397 223° Southwest 375 432 34,100 50 Climbing Denver Center
Wed 10:48:30 PM 36.1522 -108.1236 222° Southwest 375 432 34,100  Level Albuquerque Center
Wed 10:49:31 PM 36.0789 -108.2067 222° Southwest 374 430 34,100 -49 Level Albuquerque Center
Wed 10:50:33 PM 35.9925 -108.3028 222° Southwest 372 428 34,000 -49 Descending Albuquerque Center
Wed 10:51:34 PM 35.9186 -108.3842 222° Southwest 370 426 34,000  Level Albuquerque Center
Wed 10:52:35 PM 35.8456 -108.4656 222° Southwest 368 423 34,000 49 Level Albuquerque Center
Wed 10:53:36 PM 35.7600 -108.5611 222° Southwest 369 425 34,100  Climbing Albuquerque Center
Wed 10:54:37 PM 35.6858 -108.6425 222° Southwest 370 426 34,000 -49 Descending Albuquerque Center
Wed 10:55:38 PM 35.6097 -108.7236 221° Southwest 374 430 34,000  Level Albuquerque Center
Wed 10:56:40 PM 35.5244 -108.8189 222° Southwest 371 427 34,000  Level Albuquerque Center
Wed 10:57:41 PM 35.4503 -108.9000 222° Southwest 371 427 34,000  Level Albuquerque Center
Wed 10:58:42 PM 35.3722 -109.0036 227° Southwest 369 425 34,000  Level Albuquerque Center
Wed 10:59:43 PM 35.3044 -109.0919 227° Southwest 370 426 34,000 49 Level Albuquerque Center
Wed 11:00:44 PM 35.2356 -109.1786 226° Southwest 371 427 34,100  Climbing Albuquerque Center
Wed 11:01:46 PM 35.1561 -109.2825 227° Southwest 373 429 34,000 -49 Descending Albuquerque Center
Wed 11:02:47 PM 35.0878 -109.3686 226° Southwest 370 426 34,000 49 Level Albuquerque Center
Wed 11:03:48 PM 35.0200 -109.4547 226° Southwest 369 425 34,100 49 Climbing Albuquerque Center
Wed 11:04:49 PM 34.9408 -109.5575 227° Southwest 370 426 34,100 -49 Level Albuquerque Center
Wed 11:05:51 PM 34.8725 -109.6439 226° Southwest 370 426 34,000 -49 Descending Albuquerque Center
Wed 11:06:52 PM 34.7936 -109.7442 226° Southwest 368 423 34,000 -344 Level Albuquerque Center
Wed 11:07:53 PM 34.7253 -109.8306 226° Southwest 369 425 33,300 -976 Descending Albuquerque Center
Wed 11:08:55 PM 34.6747 -109.9392 241° Southwest 376 433 32,000 -1,220 Descending Albuquerque Center
Wed 11:09:56 PM 34.6253 -110.0744 246° West 390 449 30,800 -1,426 Descending Albuquerque Center
Wed 11:10:57 PM 34.5747 -110.1897 242° Southwest 400 460 29,100 -1,770 Descending Albuquerque Center
Wed 11:11:58 PM 34.5117 -110.2828 231° Southwest 394 453 27,200 -1,951 Descending Albuquerque Center
Wed 11:13:00 PM 34.4478 -110.3961 236° Southwest 372 428 25,100 -1,902 Descending Albuquerque Center
Wed 11:14:01 PM 34.4008 -110.4944 240° Southwest 374 430 23,300 -1,869 Descending Albuquerque Center
Wed 11:15:02 PM 34.3428 -110.5969 236° Southwest 370 426 21,300 -2,098 Descending Albuquerque Center
Wed 11:16:04 PM 34.2728 -110.7192 235° Southwest 369 425 19,000 -2,098 Descending Albuquerque Center
Wed 11:17:05 PM 34.2075 -110.8208 232° Southwest 386 444 17,000 -1,918 Descending Albuquerque Center
Wed 11:18:06 PM 34.1486 -110.9239 235° Southwest 376 433 15,100 -1,756 Descending Albuquerque Center
Wed 11:19:08 PM 34.0936 -111.0258 237° Southwest 370 426 13,400 -1,463 Descending Albuquerque Center
Wed 11:20:09 PM 34.0397 -111.1219 236° Southwest 359 413 12,100 -738 Descending Albuquerque Center
Wed 11:21:10 PM 33.9872 -111.2139 235° Southwest 346 398 11,900 -98 Descending Albuquerque Center
Wed 11:22:12 PM 33.9400 -111.2975 236° Southwest 308 354 11,900  Level Albuquerque Center
Wed 11:23:13 PM 33.8922 -111.3817 236° Southwest 304 350 11,900  Level Albuquerque Center
Wed 11:24:14 PM 33.8397 -111.4622 232° Southwest 303 349 11,900 -390 Level Albuquerque Center
Wed 11:25:16 PM 33.7756 -111.5294 221° Southwest 304 350 11,100 -829 Descending Albuquerque Center
Wed 11:26:17 PM 33.7047 -111.5833 212° Southwest 301 346 10,200 -984 Descending Albuquerque Center
Wed 11:27:18 PM 33.6269 -111.6211 202° Southwest 300 345 9,100 -1,770 Descending Albuquerque Center
Wed 11:28:19 PM 33.5375 -111.6631 201° Southwest 288 331 6,600 -1,610 Descending Albuquerque Center
Wed 11:29:21 PM 33.4719 -111.6936 201° Southwest 257 296 5,800 -780 Descending Albuquerque Center
Wed 11:30:22 PM 33.4206 -111.7183 202° Southwest 203 234 5,000 -639 Descending Albuquerque Center
Wed 11:31:23 PM 33.4189 -111.7800 268° West 187 215 4,500 -585 Descending Albuquerque Center
Wed 11:32:25 PM 33.4247 -111.8378 277° West 170 196 3,800 -732 Descending Albuquerque Center
Wed 11:33:26 PM 33.4278 -111.8861 274° West 155 178 3,000 -791 Descending Albuquerque Center
Wed 11:33:56 PM 33.4333 -111.9167 282° West 144 166 2,600 -750 Descending Phoenix TRACON
Wed 11:35:02 PM 33.4333 -111.9667 270° West 128 147 1,800 -727 Descending Phoenix TRACON

Login

Don't have an account? Register now (free) for customized features, flight alerts, and more!